createdAt,value
2019-03-27T00:00:28.495Z,5.47
2019-03-27T00:03:03.841Z,5.00
2019-03-27T00:05:45.582Z,5.40
2019-03-27T00:08:19.325Z,5.50
2019-03-27T00:10:56.576Z,6.83
2019-03-27T00:13:30.490Z,5.47
2019-03-27T00:16:08.252Z,5.67
2019-03-27T00:18:41.242Z,5.60
2019-03-27T00:21:19.992Z,6.10
2019-03-27T00:24:01.343Z,5.47
2019-03-27T00:26:36.318Z,5.90
2019-03-27T00:29:44.191Z,5.87
2019-03-27T00:32:21.010Z,5.90
2019-03-27T00:34:56.267Z,6.93
2019-03-27T00:37:29.636Z,6.17
2019-03-27T00:40:05.215Z,6.40
2019-03-27T00:42:44.306Z,6.70
2019-03-27T00:45:26.564Z,7.00
2019-03-27T00:47:54.428Z,7.10
2019-03-27T00:50:43.826Z,6.90
2019-03-27T00:53:36.089Z,6.63
2019-03-27T00:56:20.013Z,7.27
2019-03-27T00:58:53.743Z,7.40
2019-03-27T01:01:27.629Z,6.77
2019-03-27T01:04:10.572Z,7.40
2019-03-27T01:06:52.469Z,7.30
2019-03-27T01:09:26.886Z,6.43
2019-03-27T01:12:02.752Z,6.47
2019-03-27T01:14:37.130Z,4.83
2019-03-27T01:17:09.574Z,5.20
2019-03-27T01:19:41.737Z,5.07
2019-03-27T01:22:19.988Z,6.30
2019-03-27T01:24:55.762Z,5.87
2019-03-27T01:27:45.760Z,5.30
2019-03-27T01:30:21.773Z,5.87
2019-03-27T01:32:54.687Z,5.20
2019-03-27T01:35:28.761Z,6.50
2019-03-27T01:38:18.717Z,5.37
2019-03-27T01:40:50.791Z,4.83
2019-03-27T01:43:34.161Z,5.70
2019-03-27T01:47:00.488Z,5.80
2019-03-27T01:49:40.617Z,5.00
2019-03-27T01:52:16.953Z,5.50
2019-03-27T01:55:16.895Z,5.80
2019-03-27T01:58:01.016Z,4.63
2019-03-27T02:00:36.871Z,5.43
2019-03-27T02:03:10.803Z,4.70
2019-03-27T02:05:44.855Z,4.80
2019-03-27T02:08:37.608Z,5.20
2019-03-27T02:11:10.662Z,5.40
2019-03-27T02:13:41.949Z,4.80
2019-03-27T02:16:19.601Z,4.90
2019-03-27T02:18:50.770Z,4.23
2019-03-27T02:21:27.157Z,4.60
2019-03-27T02:23:59.919Z,4.77
2019-03-27T02:26:33.009Z,4.57
2019-03-27T02:29:16.955Z,4.53
2019-03-27T02:31:52.318Z,5.37
2019-03-27T02:34:24.352Z,5.17
2019-03-27T02:37:01.241Z,5.30
2019-03-27T02:39:33.612Z,5.27
2019-03-27T02:42:16.571Z,4.50
2019-03-27T02:44:48.825Z,5.13
2019-03-27T02:47:23.389Z,5.00
2019-03-27T02:50:15.639Z,4.90
2019-03-27T02:52:54.244Z,5.30
2019-03-27T02:55:32.604Z,5.07
2019-03-27T02:58:09.545Z,5.07
2019-03-27T03:00:59.401Z,5.07
2019-03-27T03:03:33.914Z,5.20
2019-03-27T03:06:06.130Z,5.17
2019-03-27T03:08:39.788Z,5.77
2019-03-27T03:11:32.195Z,5.80
2019-03-27T03:14:15.879Z,5.80
2019-03-27T03:16:50.224Z,5.27
2019-03-27T03:19:41.900Z,6.83
2019-03-27T03:22:26.140Z,6.93
2019-03-27T03:24:59.966Z,6.83
2019-03-27T03:27:38.702Z,6.77
2019-03-27T03:30:16.745Z,7.00
2019-03-27T03:32:52.034Z,7.10
2019-03-27T03:35:23.231Z,7.33
2019-03-27T03:37:57.899Z,7.27
2019-03-27T03:40:31.041Z,7.43
2019-03-27T03:43:02.304Z,7.70
2019-03-27T03:45:35.605Z,7.83
2019-03-27T03:48:11.900Z,7.20
2019-03-27T03:51:01.984Z,7.60
2019-03-27T03:53:35.228Z,8.00
2019-03-27T03:56:12.748Z,7.63
2019-03-27T03:58:48.785Z,7.90
2019-03-27T04:01:21.055Z,7.33
2019-03-27T04:04:00.354Z,7.27
2019-03-27T04:06:41.455Z,7.00
2019-03-27T04:09:24.134Z,8.80
2019-03-27T04:11:57.118Z,8.00
2019-03-27T04:14:32.202Z,6.93
2019-03-27T04:17:17.083Z,8.30
2019-03-27T04:19:56.007Z,7.60
2019-03-27T04:22:35.388Z,7.90
2019-03-27T04:25:21.429Z,8.37
2019-03-27T04:28:11.509Z,7.20
2019-03-27T04:30:43.423Z,8.20
2019-03-27T04:33:44.117Z,7.20
2019-03-27T04:36:24.705Z,8.13
2019-03-27T04:39:00.290Z,7.50
2019-03-27T04:41:49.859Z,6.43
2019-03-27T04:44:21.110Z,7.47
2019-03-27T04:46:58.243Z,7.33
2019-03-27T04:50:19.210Z,6.60
2019-03-27T04:52:52.927Z,7.43
2019-03-27T04:55:33.532Z,7.70
2019-03-27T04:58:09.458Z,7.27
2019-03-27T05:00:53.018Z,7.50
2019-03-27T05:03:26.727Z,6.57
2019-03-27T05:06:01.041Z,7.10
2019-03-27T05:08:34.378Z,6.13
2019-03-27T05:11:05.637Z,7.10
2019-03-27T05:13:39.152Z,7.00
2019-03-27T05:16:21.362Z,6.57
2019-03-27T05:18:56.251Z,7.70
2019-03-27T05:21:27.913Z,7.10
2019-03-27T05:24:02.790Z,7.23
2019-03-27T05:26:36.408Z,6.90
2019-03-27T05:29:15.499Z,6.33
2019-03-27T05:31:48.787Z,6.90
2019-03-27T05:34:25.003Z,7.30
2019-03-27T05:36:57.732Z,8.17
2019-03-27T05:39:34.268Z,6.60
2019-03-27T05:42:09.437Z,6.73
2019-03-27T05:44:40.883Z,6.63
2019-03-27T05:47:19.810Z,7.10
2019-03-27T05:49:52.089Z,6.80
2019-03-27T05:52:25.525Z,6.30
2019-03-27T05:55:00.350Z,6.40
2019-03-27T05:57:58.360Z,6.90
2019-03-27T06:00:45.279Z,6.47
2019-03-27T06:03:30.935Z,6.47
2019-03-27T06:06:08.627Z,7.23
2019-03-27T06:09:19.015Z,7.20
2019-03-27T06:12:09.388Z,7.70
2019-03-27T06:14:48.653Z,7.17
2019-03-27T06:17:22.978Z,7.13
2019-03-27T06:20:09.630Z,7.87
2019-03-27T06:23:02.861Z,6.47
2019-03-27T06:25:44.947Z,6.90
2019-03-27T06:28:19.569Z,7.47
2019-03-27T06:31:02.415Z,6.80
2019-03-27T06:33:36.360Z,6.87
2019-03-27T06:36:16.145Z,16.13
2019-03-27T06:38:49.893Z,6.93
2019-03-27T06:41:31.263Z,6.10
2019-03-27T06:44:05.832Z,6.80
2019-03-27T06:46:42.205Z,5.80
2019-03-27T06:49:19.896Z,7.20
2019-03-27T06:51:53.184Z,8.30
2019-03-27T06:54:24.442Z,6.53
2019-03-27T06:57:01.146Z,6.20
2019-03-27T06:59:34.586Z,6.70
2019-03-27T07:02:12.360Z,6.70
2019-03-27T07:04:44.478Z,7.07
2019-03-27T07:07:20.138Z,7.53
2019-03-27T07:09:55.317Z,7.20
2019-03-27T07:12:31.974Z,7.57
2019-03-27T07:15:09.968Z,8.90
2019-03-27T07:18:00.232Z,8.70
2019-03-27T07:20:49.338Z,7.80
2019-03-27T07:23:22.208Z,6.90
2019-03-27T07:25:57.946Z,7.80
2019-03-27T07:28:35.242Z,8.43
2019-03-27T07:31:14.307Z,8.40
2019-03-27T07:33:54.251Z,7.77
2019-03-27T07:36:30.466Z,7.90
2019-03-27T07:39:11.297Z,8.70
2019-03-27T07:41:42.267Z,8.10
2019-03-27T07:44:14.414Z,8.33
2019-03-27T07:46:50.196Z,8.27
2019-03-27T07:49:21.298Z,8.93
2019-03-27T07:51:53.959Z,8.07
2019-03-27T07:54:31.489Z,7.80
2019-03-27T07:57:08.321Z,12.60
2019-03-27T07:59:58.102Z,9.40
2019-03-27T08:02:35.086Z,8.00
2019-03-27T08:05:12.036Z,8.67
2019-03-27T08:07:46.349Z,7.63
2019-03-27T08:10:21.630Z,9.07
2019-03-27T08:12:54.843Z,8.60
2019-03-27T08:18:52.584Z,8.03
2019-03-27T08:21:24.454Z,8.07
2019-03-27T08:23:58.365Z,8.80
2019-03-27T08:26:51.657Z,8.77
2019-03-27T08:29:42.827Z,9.00
2019-03-27T08:32:39.474Z,8.30
2019-03-27T08:35:13.545Z,7.97
2019-03-27T08:37:45.511Z,8.77
2019-03-27T08:40:19.839Z,9.10
2019-03-27T08:42:52.657Z,8.37
2019-03-27T08:45:24.422Z,9.07
2019-03-27T08:48:15.430Z,9.10
2019-03-27T08:50:48.013Z,8.97
2019-03-27T08:53:22.773Z,9.60
2019-03-27T08:56:03.716Z,8.80
2019-03-27T08:58:37.722Z,8.60
2019-03-27T09:01:11.565Z,8.50
2019-03-27T09:03:48.935Z,9.10
2019-03-27T09:06:32.982Z,9.33
2019-03-27T09:08:54.862Z,8.43
2019-03-27T09:11:29.996Z,9.43
2019-03-27T09:14:02.676Z,9.43
2019-03-27T09:16:53.935Z,9.83
2019-03-27T09:19:35.769Z,9.23
2019-03-27T09:22:03.391Z,9.87
2019-03-27T09:24:53.463Z,9.17
2019-03-27T09:27:34.319Z,9.23
2019-03-27T09:30:10.189Z,9.53
2019-03-27T09:33:02.564Z,9.20
2019-03-27T09:35:41.159Z,10.20
2019-03-27T09:38:21.122Z,10.57
2019-03-27T09:40:54.018Z,9.83
2019-03-27T09:43:32.234Z,10.10
2019-03-27T09:46:06.262Z,10.73
2019-03-27T09:48:56.658Z,11.43
2019-03-27T09:51:31.664Z,11.63
2019-03-27T09:54:02.946Z,10.80
2019-03-27T09:56:42.410Z,10.80
2019-03-27T09:59:23.842Z,11.73
2019-03-27T10:02:17.519Z,10.37
2019-03-27T10:04:55.953Z,11.20
2019-03-27T10:07:36.430Z,10.70
2019-03-27T10:10:15.071Z,11.30
2019-03-27T10:12:46.190Z,10.70
2019-03-27T10:15:25.501Z,12.20
2019-03-27T10:18:04.278Z,12.23
2019-03-27T10:20:36.186Z,11.30
2019-03-27T10:23:10.608Z,12.20
2019-03-27T10:25:42.461Z,11.90
2019-03-27T10:28:14.572Z,12.37
2019-03-27T10:30:48.608Z,11.57
2019-03-27T10:33:20.907Z,13.20
2019-03-27T10:36:03.970Z,11.63
2019-03-27T10:38:41.591Z,11.93
2019-03-27T10:41:15.873Z,12.23
2019-03-27T10:43:49.244Z,11.50
2019-03-27T10:46:21.056Z,10.77
2019-03-27T10:48:58.773Z,10.80
2019-03-27T10:51:31.087Z,11.97
2019-03-27T10:54:16.954Z,11.07
2019-03-27T10:56:48.603Z,11.73
2019-03-27T10:59:23.084Z,11.43
2019-03-27T11:01:58.873Z,10.60
2019-03-27T11:04:34.767Z,10.00
2019-03-27T11:07:13.386Z,10.47
2019-03-27T11:09:47.309Z,11.00
2019-03-27T11:12:23.673Z,11.60
2019-03-27T11:15:00.374Z,9.50
2019-03-27T11:17:50.164Z,11.00
2019-03-27T11:20:40.499Z,9.70
2019-03-27T11:23:21.847Z,9.07
2019-03-27T11:25:57.561Z,9.13
2019-03-27T11:28:48.057Z,9.00
2019-03-27T11:31:40.432Z,8.90
2019-03-27T11:34:14.895Z,7.90
2019-03-27T11:36:54.206Z,8.73
2019-03-27T11:39:35.600Z,9.03
2019-03-27T11:42:12.259Z,10.33
2019-03-27T11:44:54.221Z,10.23
2019-03-27T11:47:26.177Z,8.90
2019-03-27T11:50:03.270Z,8.90
2019-03-27T11:52:38.391Z,12.43
2019-03-27T11:55:15.573Z,9.07
2019-03-27T11:57:54.005Z,8.40
2019-03-27T12:00:54.260Z,9.00
2019-03-27T12:03:19.542Z,7.70
2019-03-27T12:05:54.445Z,8.40
2019-03-27T12:08:36.058Z,7.63
2019-03-27T12:11:25.248Z,7.20
2019-03-27T12:13:59.639Z,7.23
2019-03-27T12:16:39.357Z,6.97
2019-03-27T12:19:13.628Z,6.83
2019-03-27T12:21:55.082Z,6.70
2019-03-27T12:24:37.235Z,7.93
2019-03-27T12:27:10.260Z,7.20
2019-03-27T12:29:44.585Z,8.73
2019-03-27T12:32:18.675Z,7.70
2019-03-27T12:34:53.080Z,7.17
2019-03-27T12:37:26.426Z,7.13
2019-03-27T12:40:18.762Z,7.60
2019-03-27T12:42:52.838Z,7.60
2019-03-27T12:45:39.145Z,6.70
2019-03-27T12:48:14.191Z,6.60
2019-03-27T12:51:11.760Z,9.60
2019-03-27T12:53:36.266Z,7.03
2019-03-27T12:56:35.437Z,5.40
2019-03-27T12:59:22.776Z,4.83
2019-03-27T13:02:01.036Z,5.53
2019-03-27T13:04:35.973Z,5.97
2019-03-27T13:07:17.269Z,6.17
2019-03-27T13:10:14.073Z,6.40
2019-03-27T13:12:59.376Z,6.50
2019-03-27T13:15:37.636Z,5.90
2019-03-27T13:18:28.661Z,6.40
2019-03-27T13:21:04.387Z,6.90
2019-03-27T13:23:39.099Z,7.80
2019-03-27T13:26:19.404Z,7.37
2019-03-27T13:28:52.514Z,7.60
2019-03-27T13:31:26.091Z,7.00
2019-03-27T13:34:02.022Z,8.77
2019-03-27T13:36:37.189Z,7.23
2019-03-27T13:39:14.671Z,7.30
2019-03-27T13:41:47.149Z,9.30
2019-03-27T13:44:37.353Z,10.00
2019-03-27T13:47:09.570Z,10.20
2019-03-27T13:50:04.005Z,10.63
2019-03-27T13:52:40.492Z,10.50
2019-03-27T13:55:22.139Z,10.43
2019-03-27T13:57:54.892Z,11.10
2019-03-27T14:00:44.549Z,10.90
2019-03-27T14:03:22.059Z,10.57
2019-03-27T14:06:09.258Z,9.50
2019-03-27T14:08:45.659Z,9.87
2019-03-27T14:11:34.755Z,8.70
2019-03-27T14:14:25.560Z,8.80
2019-03-27T14:17:10.947Z,7.80
2019-03-27T14:19:45.141Z,6.60
2019-03-27T14:22:20.129Z,8.20
2019-03-27T14:24:55.175Z,8.10
2019-03-27T14:27:34.614Z,8.00
2019-03-27T14:31:05.175Z,8.83
2019-03-27T14:33:39.806Z,8.00
2019-03-27T14:36:32.981Z,8.10
2019-03-27T14:39:11.990Z,7.43
2019-03-27T14:41:43.246Z,8.20
2019-03-27T14:44:34.332Z,6.43
2019-03-27T14:47:19.260Z,7.50
2019-03-27T14:49:54.993Z,7.30
2019-03-27T14:52:45.099Z,6.70
2019-03-27T14:55:19.986Z,5.87
2019-03-27T14:57:51.779Z,6.80
2019-03-27T15:00:31.193Z,6.37
2019-03-27T15:03:16.186Z,8.90
2019-03-27T15:05:49.519Z,6.13
2019-03-27T15:08:23.476Z,5.80
2019-03-27T15:10:56.584Z,5.73
2019-03-27T15:13:34.488Z,6.63
2019-03-27T15:16:09.601Z,6.03
2019-03-27T15:18:59.225Z,5.90
2019-03-27T15:21:32.567Z,6.00
2019-03-27T15:24:07.368Z,6.10
2019-03-27T15:26:57.084Z,6.00
2019-03-27T15:29:36.547Z,5.80
2019-03-27T15:32:11.097Z,6.20
2019-03-27T15:34:46.213Z,6.53
2019-03-27T15:37:20.087Z,5.73
2019-03-27T15:39:53.405Z,4.93
2019-03-27T15:42:26.151Z,5.57
2019-03-27T15:44:58.414Z,4.80
2019-03-27T15:47:35.596Z,6.60
2019-03-27T15:50:29.568Z,6.97
2019-03-27T15:53:06.227Z,7.43
2019-03-27T15:55:59.925Z,6.00
2019-03-27T15:58:33.603Z,7.43
2019-03-27T16:01:07.891Z,7.47
2019-03-27T16:03:41.477Z,7.47
2019-03-27T16:06:18.059Z,6.37
2019-03-27T16:08:57.230Z,6.50
2019-03-27T16:14:48.564Z,7.20
2019-03-27T16:17:23.952Z,6.17
2019-03-27T16:19:59.731Z,6.73
2019-03-27T16:22:50.092Z,6.93
2019-03-27T16:25:23.559Z,6.33
2019-03-27T16:27:55.818Z,6.33
2019-03-27T16:30:35.697Z,6.50
2019-03-27T16:33:21.201Z,6.30
2019-03-27T16:36:01.151Z,6.67
2019-03-27T16:38:38.044Z,7.17
2019-03-27T16:41:17.589Z,6.60
2019-03-27T16:43:55.942Z,6.23
2019-03-27T16:46:47.679Z,5.90
2019-03-27T16:49:25.423Z,6.93
2019-03-27T16:52:17.997Z,6.80
2019-03-27T16:55:21.514Z,6.60
2019-03-27T16:58:18.377Z,6.40
2019-03-27T17:01:23.816Z,6.50
2019-03-27T17:04:08.014Z,6.70
2019-03-27T17:06:42.104Z,6.80
2019-03-27T17:09:20.386Z,7.23
2019-03-27T17:12:13.984Z,6.57
2019-03-27T17:15:26.333Z,7.30
2019-03-27T17:17:55.396Z,8.00
2019-03-27T17:20:39.175Z,13.53
2019-03-27T17:23:55.833Z,7.37
2019-03-27T17:26:38.842Z,8.67
2019-03-27T17:29:15.545Z,7.30
2019-03-27T17:31:59.598Z,7.77
2019-03-27T17:34:44.288Z,7.50
2019-03-27T17:37:16.328Z,7.13
2019-03-27T17:40:12.942Z,7.83
2019-03-27T17:43:10.414Z,9.47
2019-03-27T17:46:00.660Z,7.47
2019-03-27T17:49:02.560Z,7.70
2019-03-27T17:51:45.521Z,7.50
2019-03-27T17:54:21.012Z,7.77
2019-03-27T17:57:04.765Z,7.87
2019-03-27T17:59:44.118Z,7.30
2019-03-27T18:02:19.322Z,7.47
2019-03-27T18:05:05.952Z,8.30
2019-03-27T18:07:41.070Z,7.23
2019-03-27T18:10:32.602Z,8.17
2019-03-27T18:13:21.956Z,7.30
2019-03-27T18:15:55.524Z,9.43
2019-03-27T18:18:44.112Z,9.17
2019-03-27T18:21:17.822Z,9.33
2019-03-27T18:23:53.955Z,10.17
2019-03-27T18:26:32.250Z,10.30
2019-03-27T18:29:16.496Z,11.33
2019-03-27T18:31:49.722Z,12.57
2019-03-27T18:34:27.140Z,13.87
2019-03-27T18:37:02.755Z,13.03
2019-03-27T18:39:41.749Z,14.23
2019-03-27T18:42:19.491Z,14.00
2019-03-27T18:44:55.225Z,14.53
2019-03-27T18:47:36.859Z,14.47
2019-03-27T18:50:10.299Z,15.83
2019-03-27T18:52:55.242Z,17.40
2019-03-27T18:55:31.046Z,15.13
2019-03-27T18:58:05.212Z,14.40
2019-03-27T19:00:37.055Z,15.27
2019-03-27T19:03:13.770Z,16.20
2019-03-27T19:05:54.131Z,15.93
2019-03-27T19:08:27.154Z,15.67
2019-03-27T19:11:15.265Z,14.83
2019-03-27T19:13:49.962Z,17.63
2019-03-27T19:16:42.344Z,17.10
2019-03-27T19:19:16.553Z,16.40
2019-03-27T19:21:55.567Z,16.13
2019-03-27T19:24:47.370Z,16.67
2019-03-27T19:27:23.684Z,16.60
2019-03-27T19:30:02.716Z,17.90
2019-03-27T19:32:49.948Z,18.77
2019-03-27T19:35:27.287Z,19.77
2019-03-27T19:37:58.506Z,19.67
2019-03-27T19:40:48.515Z,18.53
2019-03-27T19:43:24.391Z,18.37
2019-03-27T19:46:00.116Z,17.77
2019-03-27T19:48:44.842Z,17.83
2019-03-27T19:51:14.318Z,19.27
2019-03-27T19:53:49.810Z,19.50
2019-03-27T19:56:23.020Z,17.70
2019-03-27T19:59:00.378Z,18.83
2019-03-27T20:01:43.843Z,17.23
2019-03-27T20:04:21.450Z,19.23
2019-03-27T20:07:35.358Z,19.77
2019-03-27T20:10:19.825Z,19.70
2019-03-27T20:13:14.011Z,18.53
2019-03-27T20:15:57.966Z,19.63
2019-03-27T20:18:53.395Z,21.63
2019-03-27T20:21:45.681Z,21.40
2019-03-27T20:24:23.004Z,18.87
2019-03-27T20:27:03.191Z,19.53
2019-03-27T20:29:39.714Z,18.23
2019-03-27T20:32:16.119Z,17.70
2019-03-27T20:35:06.039Z,17.70
2019-03-27T20:37:44.917Z,16.63
2019-03-27T20:40:36.852Z,17.13
2019-03-27T20:43:22.919Z,17.90
2019-03-27T20:46:26.373Z,17.20
2019-03-27T20:49:04.076Z,18.53
2019-03-27T20:51:38.397Z,18.50
2019-03-27T20:54:34.104Z,19.23
2019-03-27T20:57:22.714Z,17.00
2019-03-27T20:59:54.292Z,17.80
2019-03-27T21:02:28.017Z,17.47
2019-03-27T21:05:18.150Z,16.10
2019-03-27T21:07:59.419Z,17.30
2019-03-27T21:11:01.488Z,17.87
2019-03-27T21:13:50.455Z,17.70
2019-03-27T21:16:34.621Z,17.47
2019-03-27T21:19:25.203Z,16.27
2019-03-27T21:22:03.935Z,17.80
2019-03-27T21:24:43.982Z,17.30
2019-03-27T21:27:17.404Z,17.00
2019-03-27T21:29:54.317Z,15.67
2019-03-27T21:32:27.472Z,16.70
2019-03-27T21:35:21.163Z,18.50
2019-03-27T21:37:56.378Z,18.03
2019-03-27T21:40:52.558Z,17.00
2019-03-27T21:43:35.021Z,17.20
2019-03-27T21:46:19.379Z,17.53
2019-03-27T21:48:53.173Z,18.43
2019-03-27T21:51:26.383Z,19.40
2019-03-27T21:53:59.909Z,19.77
2019-03-27T21:56:39.686Z,19.83
2019-03-27T21:59:23.890Z,20.13
2019-03-27T22:02:14.562Z,20.50
2019-03-27T22:04:50.135Z,19.40
2019-03-27T22:07:40.129Z,20.43
2019-03-27T22:10:23.652Z,20.87
2019-03-27T22:12:58.804Z,21.57
2019-03-27T22:15:38.322Z,22.20
2019-03-27T22:18:13.813Z,20.63
2019-03-27T22:20:48.722Z,21.00
2019-03-27T22:23:24.359Z,20.77
2019-03-27T22:26:18.499Z,18.60
2019-03-27T22:29:11.292Z,19.50
2019-03-27T22:31:54.221Z,19.10
2019-03-27T22:34:27.513Z,19.93
2019-03-27T22:37:09.090Z,19.07
2019-03-27T22:39:50.065Z,18.60
2019-03-27T22:42:26.405Z,18.70
2019-03-27T22:45:04.367Z,18.83
2019-03-27T22:47:39.687Z,19.20
2019-03-27T22:50:16.147Z,15.40
2019-03-27T22:52:51.400Z,18.17
2019-03-27T22:55:49.695Z,16.07
2019-03-27T22:58:18.174Z,16.97
2019-03-27T23:00:56.466Z,16.90
2019-03-27T23:03:35.647Z,17.77
2019-03-27T23:06:26.524Z,16.00
2019-03-27T23:09:00.221Z,18.53
2019-03-27T23:11:54.586Z,16.30
2019-03-27T23:14:43.951Z,16.77
2019-03-27T23:17:37.215Z,16.90
2019-03-27T23:20:14.588Z,16.70
2019-03-27T23:23:10.369Z,17.50
2019-03-27T23:26:02.200Z,17.10
2019-03-27T23:28:30.147Z,17.10
2019-03-27T23:31:13.416Z,15.50
2019-03-27T23:34:25.384Z,16.67
2019-03-27T23:37:07.741Z,16.30
2019-03-27T23:39:58.798Z,15.67
2019-03-27T23:43:04.322Z,16.00
2019-03-27T23:45:58.183Z,14.67
2019-03-27T23:48:36.805Z,16.77
2019-03-27T23:51:13.926Z,16.00
2019-03-27T23:54:03.669Z,15.77
2019-03-27T23:56:38.631Z,15.33
2019-03-27T23:59:11.317Z,16.43
